Time;durP1;ratioP1;P1;durP2;ratioP2;P2;SDS_P1;SDS_P2;PMS_P1;PMS_P2;Temp;Humidity;BMP_temperature;BMP_pressure;BME280_temperature;BME280_humidity;BME280_pressure;Samples;Min_cycle;Max_cycle;Signal;HPM_P1;HPM_P2
2022/01/21 00:01:27;;;;;;;4.28;0.95;;;;;;;;;;5032644;28;20109;-47
2022/01/21 00:03:53;;;;;;;3.88;0.90;;;;;;;;;;5032511;28;20132;-48
2022/01/21 00:06:19;;;;;;;2.92;1.13;;;;;;;;;;5032794;28;20025;-48
2022/01/21 00:08:47;;;;;;;5.05;1.00;;;14.70;90.30;;;;;;5033115;28;20063;-48
2022/01/21 00:11:14;;;;;;;6.50;1.27;;;;;;;;;;5032693;28;20033;-48
2022/01/21 00:13:41;;;;;;;1.95;0.77;;;14.80;89.00;;;;;;5032748;28;20065;-48
2022/01/21 00:16:13;;;;;;;5.28;1.13;;;14.70;84.40;;;;;;5032379;28;20040;-49
2022/01/21 00:18:39;;;;;;;3.03;0.95;;;;;;;;;;5032496;28;20387;-49
2022/01/21 00:32:05;;;;;;;6.65;1.55;;;;;;;;;;5032652;28;20075;-47
2022/01/21 00:34:31;;;;;;;4.78;1.27;;;;;;;;;;5032372;28;20468;-48
2022/01/21 00:36:57;;;;;;;3.17;1.10;;;;;;;;;;5032286;28;20025;-48
2022/01/21 00:39:26;;;;;;;4.05;1.00;;;;;;;;;;5032248;28;20555;-49
2022/01/21 00:42:07;;;;;;;1.60;0.60;;;;;;;;;;5032537;28;20029;-48
2022/01/21 00:44:34;;;;;;;2.55;0.75;;;;;;;;;;5032333;28;20225;-48
2022/01/21 00:47:00;;;;;;;3.30;0.95;;;;;;;;;;5032252;28;20026;-48
2022/01/21 00:49:26;;;;;;;2.58;0.63;;;;;;;;;;5032059;28;20088;-49
2022/01/21 00:51:52;;;;;;;3.03;0.85;;;;;;;;;;5032148;28;20475;-48
2022/01/21 00:54:18;;;;;;;4.68;1.05;;;;;;;;;;5032024;28;20159;-48
2022/01/21 00:56:44;;;;;;;3.45;0.80;;;;;;;;;;5032052;28;20494;-48
2022/01/21 00:59:10;;;;;;;2.45;0.50;;;;;;;;;;5031978;28;20037;-48
2022/01/21 01:01:36;;;;;;;2.63;1.10;;;;;;;;;;5031981;28;20029;-49
2022/01/21 01:04:02;;;;;;;2.28;0.90;;;;;;;;;;5031911;28;20055;-48
2022/01/21 01:06:28;;;;;;;4.47;1.40;;;;;;;;;;5032165;28;20419;-48
2022/01/21 01:08:54;;;;;;;3.55;1.00;;;;;;;;;;5033081;28;20037;-48
2022/01/21 01:11:31;;;;;;;3.72;0.73;;;14.50;90.60;;;;;;5036315;28;20021;-47
2022/01/21 01:22:14;;;;;;;3.92;0.82;;;;;;;;;;5036311;28;20514;-48
2022/01/21 01:27:41;;;;;;;6.93;1.45;;;;;;;;;;5036016;28;20036;-47
2022/01/21 01:30:11;;;;;;;4.20;0.77;;;14.40;90.50;;;;;;5035775;28;20025;-49
2022/01/21 01:32:38;;;;;;;4.20;0.70;;;;;;;;;;5035601;28;20116;-47
2022/01/21 01:35:04;;;;;;;3.13;1.15;;;;;;;;;;5035805;28;20044;-48
2022/01/21 01:50:42;;;;;;;3.97;0.93;;;;;;;;;;5035333;28;20032;-47
2022/01/21 01:53:10;;;;;;;4.15;0.80;;;14.30;90.40;;;;;;5035289;28;20025;-47
2022/01/21 01:55:36;;;;;;;4.28;0.93;;;14.30;88.80;;;;;;5035223;28;20073;-46
2022/01/21 01:58:03;;;;;;;3.13;0.90;;;;;;;;;;5035240;28;20029;-46
2022/01/21 02:00:29;;;;;;;2.78;1.00;;;;;;;;;;5035172;28;20030;-46
2022/01/21 02:02:55;;;;;;;3.90;0.70;;;;;;;;;;5034836;28;20101;-47
2022/01/21 02:05:21;;;;;;;3.45;0.90;;;;;;;;;;5035229;28;20361;-47
2022/01/21 02:07:47;;;;;;;2.63;0.93;;;;;;;;;;5034982;28;20095;-47
2022/01/21 02:10:13;;;;;;;3.63;0.57;;;;;;;;;;5034943;28;20030;-47
2022/01/21 02:12:41;;;;;;;2.00;0.90;;;14.20;90.60;;;;;;5035112;28;20353;-48
2022/01/21 02:15:07;;;;;;;3.90;0.80;;;;;;;;;;5035040;28;20017;-49
2022/01/21 02:22:48;;;;;;;3.40;0.77;;;;;;;;;;5035398;28;20087;-47
2022/01/21 02:25:18;;;;;;;1.67;0.60;;;;;;;;;;5034629;28;20056;-48
2022/01/21 02:27:47;;;;;;;3.03;0.80;;;14.20;90.60;;;;;;5034963;28;20037;-47
2022/01/21 02:30:18;;;;;;;2.78;0.82;;;14.10;90.50;;;;;;5034577;28;20075;-47
2022/01/21 02:32:52;;;;;;;2.15;0.70;;;14.10;84.90;;;;;;5034804;28;20022;-48
2022/01/21 02:35:19;;;;;;;3.97;1.42;;;14.10;90.60;;;;;;5034500;28;20057;-47
2022/01/21 02:37:46;;;;;;;3.80;1.02;;;;;;;;;;5034465;28;20029;-47
2022/01/21 02:40:12;;;;;;;3.22;0.90;;;;;;;;;;5034449;28;20511;-48
2022/01/21 02:42:38;;;;;;;3.47;0.95;;;;;;;;;;5034417;28;20026;-47
2022/01/21 02:45:07;;;;;;;3.28;0.80;;;14.10;90.70;;;;;;5034286;28;20052;-48
2022/01/21 02:47:33;;;;;;;1.23;0.57;;;;;;;;;;5034702;28;20029;-48
2022/01/21 02:49:59;;;;;;;3.22;0.50;;;;;;;;;;5034495;28;20184;-47
2022/01/21 02:52:28;;;;;;;4.47;1.20;;;;;;;;;;5034263;28;20025;-48
2022/01/21 02:54:54;;;;;;;3.95;0.77;;;;;;;;;;5034361;28;20087;-47
2022/01/21 02:57:20;;;;;;;4.38;1.00;;;;;;;;;;5034083;28;20030;-47
2022/01/21 02:59:49;;;;;;;1.30;0.68;;;;;;;;;;5034074;28;20072;-47
2022/01/21 03:02:15;;;;;;;3.55;0.90;;;;;;;;;;5034070;28;20053;-47
2022/01/21 03:07:12;;;;;;;2.45;0.82;;;;;;;;;;5034331;28;20032;-47
2022/01/21 03:09:38;;;;;;;2.20;0.50;;;;;;;;;;5033964;28;20034;-48
2022/01/21 03:12:05;;;;;;;2.55;0.75;;;;;;;;;;5033911;28;20057;-48
2022/01/21 03:14:31;;;;;;;2.50;0.95;;;;;;;;;;5033849;28;20442;-48
2022/01/21 03:16:57;;;;;;;1.73;0.50;;;;;;;;;;5033671;28;20083;-47
2022/01/21 03:19:23;;;;;;;3.15;0.75;;;;;;;;;;5033761;28;20112;-47
2022/01/21 03:21:49;;;;;;;2.50;1.00;;;;;;;;;;5033707;28;20426;-48
2022/01/21 03:24:15;;;;;;;4.65;0.82;;;;;;;;;;5033510;28;20175;-49
2022/01/21 03:26:41;;;;;;;3.20;1.15;;;;;;;;;;5033590;28;20079;-48
2022/01/21 03:29:07;;;;;;;3.35;0.93;;;;;;;;;;5033481;28;20491;-47
2022/01/21 03:31:34;;;;;;;3.42;0.95;;;;;;;;;;5033299;28;20040;-47
2022/01/21 03:34:00;;;;;;;4.07;0.95;;;;;;;;;;5032668;28;20026;-47
2022/01/21 03:36:27;;;;;;;2.20;0.65;;;13.90;90.80;;;;;;5033370;28;20033;-47
2022/01/21 03:38:54;;;;;;;1.67;0.50;;;;;;;;;;5033358;28;20109;-47
2022/01/21 03:41:19;;;;;;;2.33;0.63;;;;;;;;;;5033201;28;20480;-47
2022/01/21 03:43:47;;;;;;;1.85;0.50;;;;;;;;;;5033170;28;20031;-47
2022/01/21 03:46:13;;;;;;;2.63;0.80;;;;;;;;;;5033200;28;20388;-47
2022/01/21 03:48:39;;;;;;;1.92;0.60;;;;;;;;;;5033616;28;20028;-48
2022/01/21 03:51:05;;;;;;;2.10;0.50;;;;;;;;;;5033139;28;20427;-49
2022/01/21 03:53:31;;;;;;;4.47;0.90;;;;;;;;;;5033047;28;20061;-48
2022/01/21 03:55:57;;;;;;;1.60;0.60;;;;;;;;;;5033071;28;20456;-49
2022/01/21 03:58:23;;;;;;;2.15;0.80;;;;;;;;;;5032955;28;20392;-48
2022/01/21 04:00:52;;;;;;;4.15;0.77;;;13.80;90.90;;;;;;5032960;28;20159;-47
2022/01/21 04:03:18;;;;;;;3.25;1.13;;;;;;;;;;5032541;28;20053;-47
2022/01/21 04:05:46;;;;;;;2.33;0.73;;;;;;;;;;5033146;28;20076;-47
2022/01/21 04:08:12;;;;;;;2.33;0.68;;;;;;;;;;5032793;28;20467;-48
2022/01/21 04:10:41;;;;;;;2.75;0.85;;;;;;;;;;5032831;28;20596;-48
2022/01/21 04:13:14;;;;;;;4.20;0.82;;;13.80;91.20;;;;;;5032735;28;20026;-48
2022/01/21 04:15:41;;;;;;;2.03;0.98;;;;;;;;;;5032772;28;20431;-49
2022/01/21 04:18:07;;;;;;;1.70;0.47;;;;;;;;;;5032587;28;20029;-49
2022/01/21 04:20:33;;;;;;;3.47;0.77;;;;;;;;;;5032543;28;20033;-48
2022/01/21 04:22:58;;;;;;;3.53;0.75;;;;;;;;;;5032604;28;20052;-48
2022/01/21 04:25:24;;;;;;;2.42;0.68;;;;;;;;;;5032353;28;20109;-48
2022/01/21 04:27:50;;;;;;;6.03;0.95;;;;;;;;;;5032562;28;20112;-49
2022/01/21 04:30:16;;;;;;;1.65;0.45;;;;;;;;;;5032403;28;20079;-48
2022/01/21 04:32:42;;;;;;;4.15;0.80;;;;;;;;;;5032335;28;20472;-49
2022/01/21 04:35:09;;;;;;;5.20;0.68;;;;;;;;;;5032402;28;20041;-48
2022/01/21 04:37:38;;;;;;;2.03;0.43;;;;;;;;;;5032365;28;20030;-48
2022/01/21 04:40:09;;;;;;;2.22;0.52;;;;;;;;;;5032473;28;20033;-48
2022/01/21 04:48:05;;;;;;;1.70;0.73;;;;;;;;;;5032497;28;20033;-48
2022/01/21 04:50:39;;;;;;;1.73;0.57;;;;;;;;;;5032077;28;20132;-48
2022/01/21 04:53:06;;;;;;;3.17;0.70;;;;;;;;;;5032447;28;20025;-48
2022/01/21 04:55:33;;;;;;;2.25;0.43;;;;;;;;;;5032125;28;20034;-49
2022/01/21 04:57:59;;;;;;;2.58;0.45;;;;;;;;;;5032038;28;20061;-48
2022/01/21 05:00:25;;;;;;;2.00;0.60;;;;;;;;;;5032239;28;20132;-48
2022/01/21 05:02:51;;;;;;;2.10;0.50;;;;;;;;;;5031902;28;20056;-48
2022/01/21 05:05:17;;;;;;;2.50;0.40;;;;;;;;;;5031851;28;20038;-48
2022/01/21 05:07:43;;;;;;;1.60;0.70;;;;;;;;;;5031930;28;20021;-48
2022/01/21 05:10:09;;;;;;;2.63;0.30;;;;;;;;;;5031999;28;20488;-49
2022/01/21 05:12:36;;;;;;;2.92;0.80;;;;;;;;;;5031893;28;20026;-47
2022/01/21 05:17:29;;;;;;;3.25;0.80;;;;;;;;;;5032053;28;20040;-48
2022/01/21 05:19:55;;;;;;;1.52;0.40;;;;;;;;;;5031832;28;20026;-47
2022/01/21 05:22:21;;;;;;;1.60;1.00;;;;;;;;;;5031895;28;20040;-47
2022/01/21 05:24:47;;;;;;;2.17;0.50;;;;;;;;;;5032006;28;20096;-48
2022/01/21 05:27:14;;;;;;;2.05;0.40;;;;;;;;;;5031759;28;20033;-48
2022/01/21 05:29:40;;;;;;;1.83;0.43;;;;;;;;;;5031696;28;20112;-48
2022/01/21 05:32:07;;;;;;;2.30;0.82;;;;;;;;;;5032182;28;20017;-48
2022/01/21 05:34:34;;;;;;;2.60;0.50;;;;;;;;;;5031688;28;20041;-48
2022/01/21 05:37:00;;;;;;;1.88;0.60;;;;;;;;;;5032078;28;20028;-48
2022/01/21 05:39:26;;;;;;;1.25;0.40;;;;;;;;;;5031764;28;20029;-48
2022/01/21 05:41:53;;;;;;;1.13;0.80;;;;;;;;;;5031672;28;20086;-48
2022/01/21 05:46:59;;;;;;;2.50;0.88;;;13.40;91.20;;;;;;5031942;28;20037;-47
2022/01/21 05:49:30;;;;;;;1.52;0.40;;;13.50;91.20;;;;;;5031721;28;20021;-48
2022/01/21 05:52:03;;;;;;;3.13;0.50;;;;;;;;;;5031651;28;20032;-48
2022/01/21 05:54:30;;;;;;;3.58;0.98;;;;;;;;;;5031787;28;20033;-48
2022/01/21 05:56:56;;;;;;;1.05;0.38;;;;;;;;;;5034324;28;20026;-48
2022/01/21 05:59:22;;;;;;;1.05;0.47;;;;;;;;;;5035343;28;20053;-49
2022/01/21 06:01:48;;;;;;;3.13;1.05;;;;;;;;;;5034896;28;20041;-46
2022/01/21 06:04:14;;;;;;;1.88;0.40;;;;;;;;;;5035042;28;20081;-47
2022/01/21 06:06:40;;;;;;;1.25;0.50;;;;;;;;;;5035351;28;20208;-47
2022/01/21 06:09:07;;;;;;;1.63;0.73;;;;;;;;;;5035073;28;20034;-47
2022/01/21 06:11:33;;;;;;;1.77;0.43;;;;;;;;;;5034955;28;20048;-47
2022/01/21 06:14:00;;;;;;;1.65;0.40;;;;;;;;;;5035257;28;20056;-47
2022/01/21 06:16:26;;;;;;;3.33;0.57;;;;;;;;;;5035208;28;20065;-47
2022/01/21 06:18:52;;;;;;;1.48;0.60;;;;;;;;;;5034686;28;20492;-47
2022/01/21 06:21:19;;;;;;;2.85;0.80;;;;;;;;;;5034723;28;20030;-47
2022/01/21 06:23:44;;;;;;;1.45;0.43;;;;;;;;;;5034569;28;20048;-47
2022/01/21 06:26:10;;;;;;;1.58;0.40;;;;;;;;;;5034649;28;20030;-47
2022/01/21 06:28:36;;;;;;;1.77;0.50;;;;;;;;;;5034781;28;20075;-47
2022/01/21 06:31:02;;;;;;;3.13;0.55;;;;;;;;;;5034800;28;20488;-46
2022/01/21 06:33:28;;;;;;;2.50;0.45;;;;;;;;;;5034779;28;20029;-48
2022/01/21 06:35:54;;;;;;;2.40;0.50;;;;;;;;;;5034643;28;20033;-48
2022/01/21 06:38:21;;;;;;;1.17;0.30;;;14.20;90.80;;;;;;5034584;28;20025;-47
2022/01/21 06:40:47;;;;;;;0.70;0.30;;;;;;;;;;5034538;28;20030;-47
2022/01/21 06:43:13;;;;;;;0.88;0.35;;;;;;;;;;5034568;28;20599;-48
2022/01/21 06:45:40;;;;;;;0.70;0.35;;;;;;;;;;5034741;28;20041;-47
2022/01/21 06:48:06;;;;;;;1.42;0.70;;;;;;;;;;5034540;28;20032;-48
2022/01/21 06:50:36;;;;;;;1.65;0.50;;;14.30;91.00;;;;;;5034533;28;20037;-48
2022/01/21 06:53:02;;;;;;;1.80;0.50;;;;;;;;;;5034591;28;20478;-47
2022/01/21 06:55:28;;;;;;;1.20;0.45;;;;;;;;;;5034338;28;20072;-47
2022/01/21 06:57:54;;;;;;;1.05;0.55;;;;;;;;;;5034385;28;20034;-48
2022/01/21 07:00:20;;;;;;;1.83;0.50;;;;;;;;;;5034279;28;20029;-48
2022/01/21 07:02:47;;;;;;;2.05;0.40;;;14.40;90.80;;;;;;5034014;28;20049;-47
2022/01/21 07:05:13;;;;;;;1.85;0.50;;;;;;;;;;5034150;28;20045;-48
2022/01/21 07:07:39;;;;;;;1.23;0.40;;;;;;;;;;5033927;28;20071;-48
2022/01/21 07:10:06;;;;;;;2.53;0.55;;;;;;;;;;5034077;28;20080;-48
2022/01/21 07:12:33;;;;;;;2.65;0.50;;;14.40;90.80;;;;;;5034061;28;20160;-48
2022/01/21 07:14:59;;;;;;;1.60;0.60;;;;;;;;;;5033984;28;20037;-48
2022/01/21 07:17:25;;;;;;;1.40;0.60;;;;;;;;;;5033996;28;20023;-48
2022/01/21 07:19:51;;;;;;;2.92;0.80;;;;;;;;;;5033829;28;20580;-49
2022/01/21 07:22:17;;;;;;;1.85;0.47;;;;;;;;;;5033675;28;20029;-50
2022/01/21 07:24:43;;;;;;;6.03;0.63;;;;;;;;;;5033624;28;20037;-49
2022/01/21 07:27:09;;;;;;;0.93;0.50;;;;;;;;;;5033775;28;20049;-49
2022/01/21 07:29:35;;;;;;;1.92;0.60;;;;;;;;;;5033884;28;20033;-49
2022/01/21 07:32:01;;;;;;;1.95;0.80;;;;;;;;;;5033663;28;20068;-50
2022/01/21 07:34:27;;;;;;;2.47;0.82;;;;;;;;;;5033649;28;20030;-52
2022/01/21 07:36:54;;;;;;;2.90;1.00;;;14.80;91.10;;;;;;5033640;28;20112;-50
2022/01/21 07:39:20;;;;;;;2.22;0.95;;;;;;;;;;5033667;28;20032;-51
2022/01/21 07:41:46;;;;;;;2.17;0.80;;;;;;;;;;5033479;28;20026;-49
2022/01/21 07:44:13;;;;;;;1.25;0.80;;;;;;;;;;5033269;28;20468;-50
2022/01/21 07:46:39;;;;;;;2.35;0.70;;;;;;;;;;5033352;28;20052;-50
2022/01/21 07:49:05;;;;;;;2.00;0.50;;;;;;;;;;5033232;28;20491;-49
2022/01/21 07:51:31;;;;;;;2.08;0.60;;;;;;;;;;5033389;28;20079;-48
2022/01/21 07:53:57;;;;;;;3.30;1.00;;;;;;;;;;5033298;28;20504;-48
2022/01/21 07:56:23;;;;;;;3.75;0.70;;;;;;;;;;5033186;28;20387;-47
2022/01/21 07:58:50;;;;;;;3.78;1.20;;;;;;;;;;5033187;28;20045;-49
2022/01/21 08:01:16;;;;;;;0.93;0.80;;;;;;;;;;5033012;28;20040;-47
2022/01/21 08:03:42;;;;;;;2.00;0.70;;;;;;;;;;5032882;28;20049;-47
2022/01/21 08:06:08;;;;;;;1.98;0.57;;;;;;;;;;5033113;28;20037;-46
2022/01/21 08:08:34;;;;;;;1.15;0.80;;;;;;;;;;5032988;28;20036;-47
2022/01/21 08:11:00;;;;;;;3.63;0.88;;;;;;;;;;5032970;28;20029;-49
2022/01/21 08:13:27;;;;;;;2.40;0.85;;;;;;;;;;5033218;28;20049;-47
2022/01/21 08:15:53;;;;;;;4.03;0.70;;;;;;;;;;5033453;28;20103;-47
2022/01/21 08:18:19;;;;;;;2.30;0.75;;;;;;;;;;5032268;28;20026;-47
2022/01/21 08:20:45;;;;;;;1.65;1.00;;;;;;;;;;5032859;28;20029;-47
2022/01/21 08:23:11;;;;;;;4.82;0.52;;;;;;;;;;5032796;28;20026;-48
2022/01/21 08:25:38;;;;;;;0.77;0.47;;;;;;;;;;5032695;28;20034;-47
2022/01/21 08:28:04;;;;;;;2.08;0.80;;;;;;;;;;5032676;28;20095;-47
2022/01/21 08:30:30;;;;;;;1.27;0.50;;;;;;;;;;5032628;28;20033;-47
2022/01/21 08:32:56;;;;;;;2.70;0.85;;;;;;;;;;5032941;28;20022;-48
2022/01/21 08:35:22;;;;;;;3.78;1.13;;;;;;;;;;5032800;28;20438;-49
2022/01/21 08:37:48;;;;;;;3.28;0.90;;;;;;;;;;5032588;28;20037;-48
2022/01/21 08:40:14;;;;;;;4.60;0.77;;;;;;;;;;5032503;28;20110;-47
2022/01/21 08:42:40;;;;;;;2.65;0.85;;;;;;;;;;5032512;28;20037;-47
2022/01/21 08:45:06;;;;;;;1.45;0.50;;;;;;;;;;5032349;28;20037;-47
2022/01/21 08:47:32;;;;;;;1.35;0.80;;;;;;;;;;5032455;28;20500;-47
2022/01/21 08:50:01;;;;;;;3.13;0.80;;;;;;;;;;5032346;28;20088;-47
2022/01/21 08:52:29;;;;;;;2.28;0.68;;;;;;;;;;5032411;28;20064;-48
2022/01/21 08:54:55;;;;;;;1.55;0.65;;;;;;;;;;5032221;28;20060;-47
2022/01/21 08:57:21;;;;;;;2.58;0.70;;;;;;;;;;5032288;28;20053;-47
2022/01/21 08:59:49;;;;;;;1.20;0.70;;;;;;;;;;5032306;28;20045;-47
2022/01/21 09:02:15;;;;;;;2.70;0.90;;;;;;;;;;5032038;28;20492;-48
2022/01/21 09:04:41;;;;;;;0.57;0.57;;;;;;;;;;5032121;28;20042;-47
2022/01/21 09:07:07;;;;;;;3.65;1.17;;;;;;;;;;5032116;28;20052;-47
2022/01/21 09:09:33;;;;;;;5.18;1.10;;;;;;;;;;5031923;28;20397;-47
2022/01/21 09:12:02;;;;;;;1.77;0.70;;;;;;;;;;5031928;28;20029;-48
2022/01/21 09:14:28;;;;;;;2.60;0.80;;;;;;;;;;5031940;28;20029;-47
2022/01/21 09:16:56;;;;;;;2.03;0.90;;;;;;;;;;5031947;28;20037;-47
2022/01/21 09:19:22;;;;;;;2.75;1.00;;;;;;;;;;5031958;28;20029;-48
2022/01/21 09:21:51;;;;;;;2.38;0.85;;;;;;;;;;5031988;28;20038;-47
2022/01/21 09:24:17;;;;;;;5.57;1.40;;;;;;;;;;5031996;28;20105;-47
2022/01/21 09:26:43;;;;;;;3.05;0.80;;;;;;;;;;5031936;28;20025;-47
2022/01/21 09:29:09;;;;;;;1.52;0.70;;;;;;;;;;5031986;28;20026;-47
2022/01/21 09:31:36;;;;;;;1.27;0.70;;;;;;;;;;5034554;28;20116;-47
2022/01/21 09:34:03;;;;;;;1.17;0.77;;;;;;;;;;5035982;28;20030;-47
2022/01/21 09:36:29;;;;;;;2.53;1.10;;;;;;;;;;5035925;28;20361;-47
2022/01/21 09:38:55;;;;;;;0.88;0.50;;;;;;;;;;5035853;28;20025;-47
2022/01/21 09:41:22;;;;;;;2.38;0.55;;;;;;;;;;5035863;28;20079;-47
2022/01/21 09:43:52;;;;;;;1.65;0.70;;;16.20;90.30;;;;;;5035808;28;20044;-48
2022/01/21 09:46:20;;;;;;;4.35;1.00;;;;;;;;;;5036115;28;20415;-46
2022/01/21 09:49:05;;;;;;;2.38;0.98;;;;;;;;;;5034412;28;20036;-48
2022/01/21 09:51:32;;;;;;;1.73;0.82;;;;;;;;;;5035653;28;20021;-48
2022/01/21 09:54:01;;;;;;;2.42;0.80;;;16.10;90.60;;;;;;5035613;28;20104;-48
2022/01/21 09:56:27;;;;;;;2.15;0.80;;;;;;;;;;5035632;28;20056;-47
2022/01/21 09:58:53;;;;;;;3.50;0.50;;;;;;;;;;5035459;28;20029;-48
2022/01/21 10:01:19;;;;;;;2.67;0.88;;;;;;;;;;5035305;28;20053;-47
2022/01/21 10:03:46;;;;;;;3.22;0.95;;;;;;;;;;5035228;28;20080;-47
2022/01/21 10:06:12;;;;;;;3.15;0.80;;;;;;;;;;5035671;28;20500;-47
2022/01/21 10:08:41;;;;;;;1.70;0.68;;;16.90;90.30;;;;;;5035529;28;20032;-47
2022/01/21 10:11:07;;;;;;;1.30;0.60;;;;;;;;;;5035543;28;20029;-47
2022/01/21 10:13:35;;;;;;;1.63;0.68;;;;;;;;;;5035226;28;20026;-48
2022/01/21 10:16:02;;;;;;;2.28;0.70;;;;;;;;;;5035322;28;20060;-46
2022/01/21 10:18:28;;;;;;;1.95;0.85;;;;;;;;;;5035174;28;20018;-47
2022/01/21 10:21:13;;;;;;;2.08;0.70;;;17.50;82.40;;;;;;5035160;28;20534;-47
2022/01/21 10:23:41;;;;;;;2.50;0.75;;;17.70;88.60;;;;;;5034866;28;20025;-47
2022/01/21 10:26:11;;;;;;;3.25;1.27;;;17.70;88.50;;;;;;5035058;28;20025;-47
2022/01/21 10:28:38;;;;;;;4.93;0.95;;;17.70;88.30;;;;;;5034895;28;20061;-47
2022/01/21 10:31:16;;;;;;;2.08;0.80;;;17.90;88.30;;;;;;5034780;28;20033;-48
2022/01/21 10:33:50;;;;;;;1.73;0.80;;;17.90;81.80;;;;;;5034925;28;20022;-47
2022/01/21 10:36:27;;;;;;;1.35;0.73;;;18.10;81.60;;;;;;5035072;28;20365;-47
2022/01/21 10:39:28;;;;;;;2.72;0.88;;;18.10;88.10;;;;;;5034956;28;20100;-46
2022/01/21 10:41:57;;;;;;;2.25;0.70;;;;;;;;;;5034009;28;20055;-47
2022/01/21 10:44:25;;;;;;;1.83;0.90;;;;;;;;;;5034602;28;20041;-47
2022/01/21 10:47:08;;;;;;;2.60;0.95;;;18.20;80.50;;;;;;5034909;28;20021;-47
2022/01/21 10:49:39;;;;;;;3.90;1.17;;;18.30;86.60;;;;;;5034615;28;20037;-46
2022/01/21 10:52:05;;;;;;;4.43;0.93;;;;;;;;;;5034647;28;20022;-47
2022/01/21 10:54:31;;;;;;;3.25;0.70;;;;;;;;;;5034483;28;20040;-47
2022/01/21 10:57:17;;;;;;;4.22;1.05;;;19.00;79.00;;;;;;5034404;28;20064;-47
2022/01/21 10:59:50;;;;;;;5.18;1.23;;;19.20;78.80;;;;;;5034694;28;20087;-47
2022/01/21 11:02:30;;;;;;;2.70;0.65;;;19.30;78.10;;;;;;5034316;28;20042;-47
2022/01/21 11:04:58;;;;;;;1.30;0.60;;;;;;;;;;5034236;28;20503;-48
2022/01/21 11:07:43;;;;;;;2.67;0.90;;;19.40;77.50;;;;;;5034345;28;20025;-47
2022/01/21 11:10:09;;;;;;;3.42;0.65;;;;;;;;;;5033111;28;20495;-46
2022/01/21 11:12:35;;;;;;;4.65;0.60;;;;;;;;;;5034497;28;20104;-47
2022/01/21 11:15:05;;;;;;;2.35;0.60;;;19.60;77.30;;;;;;5034092;28;20416;-46
2022/01/21 11:17:31;;;;;;;1.63;0.68;;;;;;;;;;5034085;28;20030;-47
2022/01/21 11:20:01;;;;;;;2.05;0.75;;;19.70;77.10;;;;;;5034021;28;20024;-48
2022/01/21 11:22:29;;;;;;;2.17;0.65;;;19.70;83.30;;;;;;5033973;28;20029;-48
2022/01/21 11:24:59;;;;;;;1.65;1.00;;;;;;;;;;5033767;28;20039;-46
2022/01/21 11:27:25;;;;;;;2.92;0.73;;;;;;;;;;5034245;28;20076;-46
2022/01/21 11:29:53;;;;;;;3.17;0.88;;;;;;;;;;5034105;28;20033;-48
2022/01/21 11:32:19;;;;;;;2.35;0.80;;;;;;;;;;5033833;28;20030;-46
2022/01/21 11:34:45;;;;;;;1.27;0.50;;;;;;;;;;5033741;28;20109;-47
2022/01/21 11:37:11;;;;;;;1.80;0.57;;;19.90;80.10;;;;;;5033664;28;20104;-46
2022/01/21 11:39:38;;;;;;;1.95;0.70;;;19.80;80.40;;;;;;5033712;28;20030;-46
2022/01/21 11:42:07;;;;;;;1.50;0.60;;;19.80;83.80;;;;;;5033552;28;20323;-48
2022/01/21 11:44:37;;;;;;;1.73;0.35;;;19.90;79.50;;;;;;5033526;28;20037;-47
2022/01/21 11:47:17;;;;;;;3.45;0.73;;;19.90;83.60;;;;;;5033473;28;20021;-48
2022/01/21 11:49:54;;;;;;;2.50;0.82;;;19.90;83.10;;;;;;5034006;28;20112;-47
2022/01/21 11:52:20;;;;;;;1.35;0.77;;;;;;;;;;5033504;28;20025;-47
2022/01/21 11:54:47;;;;;;;1.63;0.68;;;20.00;83.30;;;;;;5032728;28;20025;-47
2022/01/21 11:57:15;;;;;;;1.52;0.52;;;20.10;83.70;;;;;;5033290;28;20028;-48
2022/01/21 12:00:03;;;;;;;1.60;0.77;;;20.10;83.60;;;;;;5033065;28;20025;-47
2022/01/21 12:02:30;;;;;;;3.78;0.80;;;;;;;;;;5033015;28;20038;-46
2022/01/21 12:04:56;;;;;;;3.70;0.60;;;;;;;;;;5032919;28;20048;-47
2022/01/21 12:07:34;;;;;;;3.80;0.80;;;20.20;76.90;;;;;;5032880;28;20480;-47
2022/01/21 12:10:03;;;;;;;0.75;0.45;;;20.30;76.80;;;;;;5033151;28;20041;-47
2022/01/21 12:13:04;;;;;;;2.03;0.77;;;20.20;76.80;;;;;;5032915;28;20021;-47
2022/01/21 12:21:25;;;;;;;1.60;0.85;;;20.10;83.50;;;;;;5024509;28;20076;-47
2022/01/21 12:23:52;;;;;;;2.00;0.60;;;;;;;;;;5032898;28;20041;-48
2022/01/21 12:26:18;;;;;;;1.92;0.68;;;;;;;;;;5033042;28;20104;-47
2022/01/21 12:28:44;;;;;;;4.57;0.45;;;;;;;;;;5033108;28;20199;-47
2022/01/21 12:31:13;;;;;;;1.13;0.50;;;20.10;84.10;;;;;;5032715;28;20025;-47
2022/01/21 12:33:52;;;;;;;1.65;0.40;;;20.10;77.70;;;;;;5032694;28;20026;-48
2022/01/21 12:36:20;;;;;;;3.10;0.95;;;20.00;84.50;;;;;;5032841;28;20037;-46
2022/01/21 12:41:17;;;;;;;3.80;0.80;;;20.00;78.10;;;;;;5032888;28;20048;-47
2022/01/21 12:43:47;;;;;;;1.50;0.45;;;20.00;78.10;;;;;;5032472;28;20128;-48
2022/01/21 12:46:16;;;;;;;1.83;0.50;;;19.90;84.50;;;;;;5032736;28;20030;-47
2022/01/21 12:48:44;;;;;;;2.65;0.60;;;19.80;84.60;;;;;;5032530;28;20404;-46
2022/01/21 12:56:52;;;;;;;2.70;0.70;;;19.80;85.70;;;;;;5032542;28;20492;-44
2022/01/21 12:59:24;;;;;;;3.92;0.65;;;19.60;85.70;;;;;;5032591;28;20017;-44
2022/01/21 13:01:51;;;;;;;0.68;0.35;;;19.70;82.60;;;;;;5032217;28;20046;-43
2022/01/21 13:05:04;;;;;;;0.93;0.70;;;19.70;79.10;;;;;;5031918;28;20040;-44
2022/01/21 13:07:47;;;;;;;0.98;0.60;;;19.90;79.30;;;;;;4971173;28;20046;-44
2022/01/21 13:10:27;;;;;;;1.20;0.60;;;19.90;85.70;;;;;;4971281;28;20034;-45
2022/01/21 13:15:42;;;;;;;1.70;0.82;;;20.00;79.00;;;;;;5032277;28;20396;-44
2022/01/21 13:18:08;;;;;;;2.22;0.60;;;;;;;;;;5032217;28;20036;-46
2022/01/21 13:20:36;;;;;;;1.65;0.40;;;20.00;85.60;;;;;;5032082;28;20033;-47
2022/01/21 13:23:02;;;;;;;1.73;0.63;;;;;;;;;;5032092;28;20076;-44
2022/01/21 13:25:31;;;;;;;1.10;0.47;;;;;;;;;;5031770;28;20372;-44
2022/01/21 13:27:59;;;;;;;1.55;0.50;;;20.30;85.60;;;;;;5032023;28;20412;-44
2022/01/21 13:30:28;;;;;;;1.40;0.50;;;20.30;85.20;;;;;;5031942;28;20030;-44
2022/01/21 13:33:07;;;;;;;1.83;0.47;;;20.30;78.50;;;;;;5032346;28;20029;-45
2022/01/21 13:35:35;;;;;;;2.95;0.60;;;20.40;84.70;;;;;;5032222;28;20392;-44
2022/01/21 13:38:13;;;;;;;3.00;0.40;;;20.40;78.00;;;;;;5032104;28;20026;-44
2022/01/21 13:40:55;;;;;;;2.10;0.63;;;20.50;78.00;;;;;;5031945;28;20108;-44
2022/01/21 13:43:24;;;;;;;2.45;0.60;;;20.50;84.50;;;;;;5031945;28;20121;-43
2022/01/21 13:46:01;;;;;;;1.00;0.57;;;20.50;77.80;;;;;;5031675;28;20056;-44
2022/01/21 13:48:32;;;;;;;2.33;0.38;;;20.50;77.90;;;;;;5031779;28;20056;-44
2022/01/21 13:50:59;;;;;;;2.05;0.60;;;;;;;;;;5031938;28;20021;-45
2022/01/21 13:53:26;;;;;;;4.47;0.90;;;;;;;;;;5031688;28;20468;-44
2022/01/21 13:55:54;;;;;;;2.00;0.60;;;20.50;84.40;;;;;;5031913;28;20388;-44
2022/01/21 13:58:26;;;;;;;2.60;0.47;;;20.60;84.80;;;;;;5031602;28;20033;-44
2022/01/21 14:00:57;;;;;;;2.30;0.43;;;20.60;84.90;;;;;;5031840;28;20026;-45
2022/01/21 14:03:32;;;;;;;2.30;0.73;;;20.60;85.30;;;;;;5031588;28;20177;-44
2022/01/21 14:06:00;;;;;;;2.15;0.38;;;20.60;85.00;;;;;;5031652;28;20080;-45
2022/01/21 14:08:38;;;;;;;2.10;0.50;;;20.80;78.80;;;;;;5031504;28;20033;-46
2022/01/21 14:11:10;;;;;;;1.25;0.30;;;20.70;78.40;;;;;;5031756;28;20036;-45
2022/01/21 14:13:48;;;;;;;2.72;0.60;;;20.80;84.10;;;;;;5031720;28;20024;-44
2022/01/21 14:16:26;;;;;;;2.20;0.63;;;20.70;85.20;;;;;;5031778;28;20033;-44
2022/01/21 14:18:52;;;;;;;0.93;0.50;;;;;;;;;;5035534;28;20036;-45
2022/01/21 14:21:21;;;;;;;1.67;0.50;;;20.70;85.50;;;;;;5035128;28;20029;-44
2022/01/21 14:23:48;;;;;;;0.90;0.47;;;20.80;82.50;;;;;;5034647;28;20029;-45
2022/01/21 14:26:19;;;;;;;1.40;0.50;;;21.20;78.80;;;;;;5034908;28;20586;-45
2022/01/21 14:28:48;;;;;;;1.13;0.50;;;20.90;85.30;;;;;;5035226;28;20032;-45
2022/01/21 14:31:33;;;;;;;1.10;0.40;;;21.00;78.50;;;;;;5034894;28;20037;-44
2022/01/21 14:34:20;;;;;;;2.97;0.85;;;21.30;78.70;;;;;;5035058;28;20396;-45
2022/01/21 14:37:07;;;;;;;1.50;0.57;;;21.00;78.20;;;;;;5034929;28;20028;-44
2022/01/21 14:39:47;;;;;;;3.65;0.90;;;21.00;84.80;;;;;;5035000;28;20026;-45
2022/01/21 14:42:25;;;;;;;3.80;0.93;;;21.00;84.90;;;;;;5034711;28;20129;-44
2022/01/21 14:44:53;;;;;;;1.77;0.40;;;21.10;85.10;;;;;;5034608;28;20033;-45
2022/01/21 14:47:21;;;;;;;5.45;0.77;;;21.10;85.20;;;;;;5034631;28;20022;-45
2022/01/21 14:49:54;;;;;;;2.65;0.52;;;21.10;85.40;;;;;;5034535;28;20025;-45
2022/01/21 14:54:50;;;;;;;2.40;0.65;;;;;;;;;;5034679;28;20036;-44
2022/01/21 14:57:16;;;;;;;1.80;0.65;;;;;;;;;;5034539;28;20021;-45
2022/01/21 14:59:56;;;;;;;1.75;0.50;;;21.10;78.80;;;;;;5034134;28;20041;-45
2022/01/21 15:02:33;;;;;;;3.08;0.88;;;21.10;79.00;;;;;;5033878;28;20044;-44
2022/01/21 15:05:01;;;;;;;3.97;0.50;;;21.20;82.40;;;;;;5033950;28;20494;-45
2022/01/21 15:07:29;;;;;;;2.13;0.70;;;21.20;85.70;;;;;;5034039;28;20014;-44
2022/01/21 15:10:07;;;;;;;4.30;1.20;;;21.20;85.60;;;;;;5034025;28;20491;-45
2022/01/21 15:15:51;;;;;;;2.33;0.75;;;21.20;78.70;;;;;;5034196;28;20041;-44
2022/01/21 15:18:18;;;;;;;2.50;0.50;;;21.20;81.40;;;;;;5033902;28;20025;-44
2022/01/21 15:20:45;;;;;;;4.00;0.70;;;21.20;85.20;;;;;;5033727;28;20171;-45
2022/01/21 15:23:12;;;;;;;3.22;0.80;;;;;;;;;;5033679;28;20474;-44
2022/01/21 15:25:38;;;;;;;2.40;0.63;;;;;;;;;;5033670;28;20075;-44